Flight Track Log - Related Links

Times and Time Zones

All times are in EDT time to prevent confusion due to time zone crossing. See the EJA951 flight status page for this flight to view local times or setup timezone preferences in your user account.

Time Position Orientation Groundspeed Altitude Reporting Facility
EDT Latitude Longitude Course Direction KTS MPH feet Rate Location/Type
Thu 05:23:36 PM 39.1167 -86.5667 62° Northeast 183 211 3,100  Level Indianapolis TRACON
Thu 05:25:00 PM 39.2000 -86.4833 38° Northeast 289 333 4,700 826 Climbing Indianapolis TRACON
Thu 05:25:54 PM 39.2667 -86.4500 21° North 262 302 5,000 1,477 Climbing Indianapolis TRACON
Thu 05:27:10 PM 39.3353 -86.4114 24° Northeast 258 297 7,900 2,435 Climbing Indianapolis Center
Thu 05:28:12 PM 39.3803 -86.3272 55° Northeast 287 330 10,600 1,887 Climbing Indianapolis Center
Thu 05:29:00 PM 39.5149 -85.7833 62° Northeast  Level FlightAware Approximate
Thu 05:29:14 PM 39.4242 -86.2217 62° Northeast 323 372 11,800  Level Indianapolis Center
Thu 05:30:16 PM 39.4831 -86.0781 62° Northeast 373 429 14,600 2,226 Climbing Indianapolis Center
Thu 05:31:18 PM 39.5325 -85.9567 62° Northeast 379 436 16,400 1,742 Climbing Indianapolis Center
Thu 05:32:20 PM 39.5833 -85.8294 63° Northeast 395 455 18,200 1,694 Climbing Indianapolis Center
Thu 05:33:22 PM 39.6392 -85.6986 61° Northeast 412 474 19,900 1,872 Climbing Indianapolis Center
Thu 05:34:25 PM 39.7025 -85.5311 64° Northeast 430 495 22,100 2,208 Climbing Indianapolis Center
Thu 05:35:27 PM 39.7614 -85.3894 62° Northeast 442 509 24,500 1,887 Climbing Indianapolis Center
Thu 05:36:29 PM 39.8175 -85.2439 63° Northeast 446 513 26,000 1,210 Climbing Indianapolis Center
Thu 05:37:31 PM 39.8758 -85.0892 64° Northeast 469 540 27,000 629 Climbing Indianapolis Center
Thu 05:38:33 PM 39.9192 -84.8900 74° East 512 589 27,300 1,016 Climbing Indianapolis Center
Thu 05:39:35 PM 39.9603 -84.7094 73° East 517 595 29,100 1,597 Climbing Indianapolis Center
Thu 05:40:37 PM 39.9994 -84.5303 74° East 517 595 30,600 1,210 Climbing Indianapolis Center
Thu 05:41:39 PM 40.0403 -84.3458 74° East 523 602 31,600 968 Climbing Indianapolis Center
Thu 05:42:41 PM 40.0814 -84.1606 74° East 526 605 32,600 1,065 Climbing Indianapolis Center
Thu 05:43:43 PM 40.1561 -83.9567 64° Northeast 514 592 33,800 1,008 Climbing Indianapolis Center
Thu 05:44:46 PM 40.2350 -83.7997 57° Northeast 511 588 34,700 576 Climbing Indianapolis Center
Thu 05:45:48 PM 40.3153 -83.6411 56° Northeast 513 590 35,000 145 Climbing Indianapolis Center
Thu 05:46:50 PM 40.3967 -83.4828 56° Northeast 516 594 35,000  Level Indianapolis Center
Thu 05:47:52 PM 40.4758 -83.3222 57° Northeast 519 597 35,000  Level Indianapolis Center
Thu 05:48:54 PM 40.5656 -83.1408 57° Northeast 520 598 35,000  Level Indianapolis Center
Thu 05:49:56 PM 40.6453 -82.9794 57° Northeast 520 598 35,000  Level Indianapolis Center
Thu 05:50:58 PM 40.6944 -82.7908 71° East 536 617 35,000  Level Indianapolis Center
Thu 05:52:00 PM 40.7392 -82.5978 73° East 542 624 35,000  Level Indianapolis Center
Thu 05:53:02 PM 40.7839 -82.4058 73° East 543 625 35,000  Level Indianapolis Center
Thu 05:54:05 PM 40.8289 -82.2136 73° East 543 625 35,000  Level Indianapolis Center
Thu 05:55:09 PM 40.8803 -81.9892 73° East 546 628 35,000  Level Cleveland Center
Thu 05:56:12 PM 40.9233 -81.7953 74° East 546 628 35,000  Level Cleveland Center
Thu 05:57:14 PM 40.9675 -81.6003 73° East 552 635 35,000  Level Cleveland Center
Thu 05:58:16 PM 41.0100 -81.4061 74° East 552 635 35,000  Level Cleveland Center
Thu 05:59:18 PM 41.0600 -81.1786 74° East 551 634 35,000  Level Cleveland Center
Thu 06:00:20 PM 41.1022 -80.9769 74° East 549 632 35,000  Level Cleveland Center
Thu 06:01:22 PM 41.1436 -80.7894 74° East 548 631 35,000  Level Cleveland Center
Thu 06:02:24 PM 41.1856 -80.5928 74° East 549 632 35,000  Level Cleveland Center
Thu 06:03:27 PM 41.2283 -80.3961 74° East 550 633 35,000  Level Cleveland Center
Thu 06:04:29 PM 41.2706 -80.1928 74° East 550 633 35,000  Level Cleveland Center
Thu 06:05:31 PM 41.3167 -79.9747 74° East 549 632 35,000  Level Cleveland Center
Thu 06:06:33 PM 41.3561 -79.7811 75° East 546 628 35,000  Level Cleveland Center
Thu 06:07:35 PM 41.3953 -79.5872 75° East 546 628 35,000  Level Cleveland Center
Thu 06:08:37 PM 41.4339 -79.3950 75° East 542 624 35,000  Level Cleveland Center
Thu 06:09:39 PM 41.4725 -79.2039 75° East 534 615 35,000  Level Cleveland Center
Thu 06:10:41 PM 41.5175 -78.9711 75° East 536 617 35,000  Level Cleveland Center
Thu 06:11:43 PM 41.5553 -78.7764 75° East 537 618 35,000  Level Cleveland Center
Thu 06:12:45 PM 41.5925 -78.5811 76° East 538 619 35,000  Level Cleveland Center
Thu 06:13:48 PM 41.6303 -78.3847 76° East 539 620 35,000  Level Cleveland Center
Thu 06:14:50 PM 41.6672 -78.1889 76° East 540 621 35,000 -387 Level Cleveland Center
Thu 06:15:52 PM 41.7042 -77.9928 76° East 542 624 34,200 -844 Descending Cleveland Center
Thu 06:16:58 PM 41.7461 -77.7742 76° East 548 631 33,200 -571 Descending New York Center
Thu 06:17:58 PM 41.7761 -77.5797 78° East 536 617 33,000 -102 Descending New York Center
Thu 06:18:56 PM 41.7394 -77.3814 104° East 528 608 33,000  Level New York Center
Thu 06:19:58 PM 41.6878 -77.1847 109° East 539 620 33,000  Level New York Center
Thu 06:20:57 PM 41.6342 -76.9797 109° East 559 643 33,000  Level New York Center
Thu 06:21:57 PM 41.5794 -76.7831 110° East 564 649 33,000  Level New York Center
Thu 06:22:59 PM 41.5175 -76.5642 111° Southeast 569 655 33,000  Level New York Center
Thu 06:23:57 PM 41.4644 -76.3658 110° East 569 655 33,000  Level New York Center
Thu 06:24:57 PM 41.4100 -76.1925 113° Southeast 569 655 33,000 -202 Level New York Center
Thu 06:25:56 PM 41.3567 -75.9919 109° East 569 655 32,600 -1,587 Descending New York Center
Thu 06:26:58 PM 41.3042 -75.8058 111° Southeast 556 640 29,800 -2,754 Descending New York Center
Thu 06:27:58 PM 41.2475 -75.6167 112° Southeast 551 634 27,000 -2,797 Descending New York Center
Thu 06:28:56 PM 41.1900 -75.4442 114° Southeast 527 606 24,300 -2,300 Descending New York Center
Thu 06:29:58 PM 41.1339 -75.2778 114° Southeast 509 586 22,400 -1,574 Descending New York Center
Thu 06:30:58 PM 41.0778 -75.1117 114° Southeast 497 572 21,100 -1,220 Descending New York Center
Thu 06:31:56 PM 41.0239 -74.9239 111° Southeast 491 565 20,000 -1,059 Descending New York Center
Thu 06:32:57 PM 40.9881 -74.7597 106° East 485 558 19,000 -496 Descending New York Center
Thu 06:33:57 PM 40.9569 -74.6258 107° East 442 509 19,000  Level New York Center
Thu 06:34:57 PM 40.9242 -74.4842 107° East 394 453 19,000  Level New York Center
Thu 06:35:57 PM 40.9003 -74.3756 106° East 347 399 19,000  Level New York Center
Thu 06:36:35 PM 40.8833 -74.2833 104° East 354 407 19,000  Level New York TRACON
Thu 06:37:30 PM 40.8500 -74.1667 111° Southeast 357 411 19,000 -417 Level New York TRACON
Thu 06:38:30 PM 40.7667 -74.1000 149° Southeast 358 412 18,200 -1,350 Descending New York TRACON
Thu 06:39:30 PM 40.6833 -74.0667 163° South 342 394 16,300 -2,067 Descending New York TRACON
Thu 06:40:29 PM 40.5833 -74.0333 166° South 339 390 14,100 -1,664 Descending New York TRACON
Thu 06:41:29 PM 40.5000 -74.0000 163° South 331 381 13,000 -744 Descending New York TRACON
Thu 06:42:30 PM 40.4167 -73.9500 155° Southeast 328 377 12,600 -1,286 Descending New York TRACON
Thu 06:43:35 PM 40.3333 -73.8833 149° Southeast 321 369 10,300 -2,700 Descending New York TRACON
Thu 06:44:30 PM 40.3333 -73.8000 90° East 279 321 7,200 -3,078 Descending New York TRACON
Thu 06:45:30 PM 40.3833 -73.7500 37° Northeast 228 262 4,400 -2,319 Descending New York TRACON
Thu 06:46:29 PM 40.4333 -73.7000 37° Northeast 225 259 2,600 -1,211 Descending New York TRACON
Thu 06:47:24 PM 40.4833 -73.6667 27° Northeast 231 266 2,100 -313 Descending New York TRACON
Thu 06:48:24 PM 40.5333 -73.6500 14° North 176 203 2,000 -50 Descending New York TRACON
Thu 06:49:24 PM 40.5667 -73.6667 339° North 153 176 2,000 -200 Level New York TRACON
Thu 06:50:24 PM 40.6000 -73.7000 323° Northwest 104 120 1,600 -450 Descending New York TRACON
Thu 06:51:24 PM 40.6167 -73.7333 303° West 106 122 1,100 -600 Descending New York TRACON
Thu 06:52:24 PM 40.6167 -73.7667 270° West 115 132 400 -700 Descending New York TRACON
Thu 06:54:00 PM 40.6398 -73.7789 338° Northwest  Level Estimated

Login

Don't have an account? Register now (free) for customized features, flight alerts, and more!